createdAt,value
2017-06-14T00:00:05.885Z,1012.04
2017-06-14T00:01:05.871Z,1012.04
2017-06-14T00:02:05.858Z,1012.08
2017-06-14T00:03:05.845Z,1012.04
2017-06-14T00:04:05.831Z,1012.06
2017-06-14T00:05:05.845Z,1012.04
2017-06-14T00:06:05.805Z,1012.01
2017-06-14T00:07:05.791Z,1012.05
2017-06-14T00:08:05.777Z,1012.05
2017-06-14T00:09:05.769Z,1012.05
2017-06-14T00:10:05.752Z,1012.09
2017-06-14T00:11:05.738Z,1012.07
2017-06-14T00:12:05.729Z,1012.05
2017-06-14T00:13:05.710Z,1012.08
2017-06-14T00:14:05.695Z,1012.09
2017-06-14T00:15:05.682Z,1012.08
2017-06-14T00:16:05.669Z,1012.15
2017-06-14T00:17:05.656Z,1012.13
2017-06-14T00:18:05.643Z,1012.14
2017-06-14T00:19:05.628Z,1012.14
2017-06-14T00:20:05.615Z,1012.12
2017-06-14T00:21:05.602Z,1012.13
2017-06-14T00:22:05.587Z,1012.16
2017-06-14T00:23:05.574Z,1012.14
2017-06-14T00:24:05.562Z,1012.17
2017-06-14T00:25:05.548Z,1012.16
2017-06-14T00:26:05.534Z,1012.15
2017-06-14T00:27:05.522Z,1012.14
2017-06-14T00:28:05.505Z,1012.09
2017-06-14T00:29:05.493Z,1012.07
2017-06-14T00:30:05.478Z,1012.09
2017-06-14T00:31:05.466Z,1012.04
2017-06-14T00:32:05.451Z,1012.01
2017-06-14T00:33:05.437Z,1011.99
2017-06-14T00:34:05.424Z,1012.05
2017-06-14T00:35:05.411Z,1012
2017-06-14T00:36:05.396Z,1012.02
2017-06-14T00:37:05.382Z,1012.06
2017-06-14T00:38:05.368Z,1012.04
2017-06-14T00:39:05.358Z,1012.08
2017-06-14T00:40:05.341Z,1012.04
2017-06-14T00:41:05.328Z,1012.04
2017-06-14T00:42:05.314Z,1012.02
2017-06-14T00:43:05.299Z,1012.07
2017-06-14T00:44:05.285Z,1012.06
2017-06-14T00:45:05.270Z,1012.05
2017-06-14T00:46:05.261Z,1012.01
2017-06-14T00:47:05.251Z,1012.05
2017-06-14T00:48:05.230Z,1012.01
2017-06-14T00:49:05.224Z,1012.03
2017-06-14T00:50:05.205Z,1012.02
2017-06-14T00:51:05.187Z,1012.01
2017-06-14T00:52:05.175Z,1011.99
2017-06-14T00:53:05.161Z,1011.99
2017-06-14T00:54:05.151Z,1011.98
2017-06-14T00:55:05.133Z,1012
2017-06-14T00:56:05.117Z,1011.99
2017-06-14T00:57:05.104Z,1011.99
2017-06-14T00:58:05.090Z,1012
2017-06-14T00:59:05.075Z,1012.01
2017-06-14T01:00:05.062Z,1012.04
2017-06-14T01:01:05.048Z,1012.03
2017-06-14T01:02:05.032Z,1012.03
2017-06-14T01:03:05.019Z,1012.06
2017-06-14T01:04:05.015Z,1012.05
2017-06-14T01:05:04.991Z,1012.01
2017-06-14T01:06:04.978Z,1012.08
2017-06-14T01:07:04.964Z,1012.06
2017-06-14T01:08:04.950Z,1012.06
2017-06-14T01:09:04.936Z,1012.06
2017-06-14T01:10:04.926Z,1012.07
2017-06-14T01:11:04.921Z,1012.04
2017-06-14T01:12:04.898Z,1012.04
2017-06-14T01:13:04.879Z,1012.04
2017-06-14T01:14:04.865Z,1012
2017-06-14T01:15:04.861Z,1012
2017-06-14T01:16:04.839Z,1012.01
2017-06-14T01:17:04.838Z,1012.03
2017-06-14T01:18:04.828Z,1012.07
2017-06-14T01:19:04.806Z,1012.06
2017-06-14T01:20:04.781Z,1012.07
2017-06-14T01:21:04.766Z,1012.1
2017-06-14T01:22:04.752Z,1012.05
2017-06-14T01:23:04.739Z,1012.11
2017-06-14T01:24:04.724Z,1012.06
2017-06-14T01:25:04.708Z,1012.06
2017-06-14T01:26:04.697Z,1012.05
2017-06-14T01:27:04.680Z,1012.04
2017-06-14T01:28:04.667Z,1012.04
2017-06-14T01:29:04.653Z,1012.04
2017-06-14T01:30:04.639Z,1012
2017-06-14T01:31:04.626Z,1012.03
2017-06-14T01:32:04.609Z,1011.99
2017-06-14T01:33:04.595Z,1012
2017-06-14T01:34:04.584Z,1011.97
2017-06-14T01:35:04.566Z,1011.95
2017-06-14T01:36:04.553Z,1011.96
2017-06-14T01:37:04.541Z,1011.91
2017-06-14T01:38:04.524Z,1011.88
2017-06-14T01:39:04.509Z,1011.87
2017-06-14T01:40:04.495Z,1011.81
2017-06-14T01:41:04.484Z,1011.84
2017-06-14T01:42:04.467Z,1011.81
2017-06-14T01:43:04.453Z,1011.8
2017-06-14T01:44:04.439Z,1011.78
2017-06-14T01:45:04.424Z,1011.78
2017-06-14T01:46:04.410Z,1011.75
2017-06-14T01:47:04.395Z,1011.72
2017-06-14T01:48:04.384Z,1011.73
2017-06-14T01:49:04.366Z,1011.76
2017-06-14T01:50:04.352Z,1011.76
2017-06-14T01:51:04.388Z,1011.78
2017-06-14T01:52:04.326Z,1011.81
2017-06-14T01:53:04.308Z,1011.82
2017-06-14T01:54:04.294Z,1011.82
2017-06-14T01:55:04.281Z,1011.84
2017-06-14T01:56:04.266Z,1011.84
2017-06-14T01:57:04.252Z,1011.86
2017-06-14T01:58:04.238Z,1011.83
2017-06-14T01:59:04.224Z,1011.84
2017-06-14T02:00:04.210Z,1011.88
2017-06-14T02:01:04.193Z,1011.9
2017-06-14T02:02:04.181Z,1011.88
2017-06-14T02:03:04.172Z,1011.87
2017-06-14T02:04:04.152Z,1011.9
2017-06-14T02:05:04.139Z,1011.95
2017-06-14T02:06:04.175Z,1011.9
2017-06-14T02:07:04.108Z,1011.9
2017-06-14T02:08:04.093Z,1011.92
2017-06-14T02:09:04.079Z,1011.89
2017-06-14T02:10:04.064Z,1011.89
2017-06-14T02:11:04.051Z,1011.88
2017-06-14T02:12:04.035Z,1011.85
2017-06-14T02:13:04.020Z,1011.86
2017-06-14T02:14:04.007Z,1011.82
2017-06-14T02:15:03.993Z,1011.9
2017-06-14T02:16:03.976Z,1011.88
2017-06-14T02:17:03.962Z,1011.93
2017-06-14T02:18:03.948Z,1011.9
2017-06-14T02:19:03.934Z,1011.91
2017-06-14T02:20:03.920Z,1011.92
2017-06-14T02:21:03.907Z,1011.92
2017-06-14T02:22:03.890Z,1011.87
2017-06-14T02:23:03.874Z,1011.85
2017-06-14T02:24:03.860Z,1011.82
2017-06-14T02:25:03.846Z,1011.82
2017-06-14T02:26:03.831Z,1011.82
2017-06-14T02:27:03.818Z,1011.8
2017-06-14T02:28:03.802Z,1011.81
2017-06-14T02:29:03.789Z,1011.8
2017-06-14T02:30:03.777Z,1011.76
2017-06-14T02:31:03.758Z,1011.72
2017-06-14T02:32:03.744Z,1011.78
2017-06-14T02:33:03.731Z,1011.77
2017-06-14T02:34:03.713Z,1011.8
2017-06-14T02:35:03.698Z,1011.77
2017-06-14T02:36:03.684Z,1011.76
2017-06-14T02:37:03.675Z,1011.77
2017-06-14T02:38:03.655Z,1011.74
2017-06-14T02:39:03.640Z,1011.77
2017-06-14T02:40:03.626Z,1011.74
2017-06-14T02:41:03.613Z,1011.73
2017-06-14T02:42:03.597Z,1011.73
2017-06-14T02:43:03.584Z,1011.75
2017-06-14T02:44:03.567Z,1011.72
2017-06-14T02:45:03.564Z,1011.76
2017-06-14T02:46:03.538Z,1011.71
2017-06-14T02:47:03.526Z,1011.72
2017-06-14T02:48:03.507Z,1011.7
2017-06-14T02:49:03.493Z,1011.67
2017-06-14T02:50:03.478Z,1011.69
2017-06-14T02:51:03.465Z,1011.69
2017-06-14T02:52:03.499Z,1011.66
2017-06-14T02:53:03.436Z,1011.66
2017-06-14T02:54:03.420Z,1011.63
2017-06-14T02:55:03.405Z,1011.61
2017-06-14T02:56:03.390Z,1011.64
2017-06-14T02:57:03.376Z,1011.6
2017-06-14T02:58:03.361Z,1011.62
2017-06-14T02:59:03.350Z,1011.65
2017-06-14T03:00:03.332Z,1011.68
2017-06-14T03:01:03.316Z,1011.65
2017-06-14T03:02:03.300Z,1011.76
2017-06-14T03:03:03.286Z,1011.73
2017-06-14T03:04:03.271Z,1011.74
2017-06-14T03:05:03.256Z,1011.72
2017-06-14T03:06:03.246Z,1011.68
2017-06-14T03:07:03.232Z,1011.64
2017-06-14T03:08:03.212Z,1011.59
2017-06-14T03:09:03.197Z,1011.65
2017-06-14T03:10:03.181Z,1011.64
2017-06-14T03:11:03.167Z,1011.71
2017-06-14T03:12:03.153Z,1011.67
2017-06-14T03:13:03.136Z,1011.76
2017-06-14T03:14:03.123Z,1011.77
2017-06-14T03:15:03.111Z,1011.77
2017-06-14T03:16:03.094Z,1011.76
2017-06-14T03:17:03.077Z,1011.78
2017-06-14T03:18:03.065Z,1011.84
2017-06-14T03:19:03.046Z,1011.83
2017-06-14T03:20:03.033Z,1011.84
2017-06-14T03:21:03.017Z,1011.89
2017-06-14T03:22:03.006Z,1011.88
2017-06-14T03:23:02.988Z,1011.89
2017-06-14T03:24:02.973Z,1011.9
2017-06-14T03:25:02.957Z,1011.92
2017-06-14T03:26:02.942Z,1011.88
2017-06-14T03:27:02.928Z,1011.88
2017-06-14T03:28:02.920Z,1011.84
2017-06-14T03:29:02.900Z,1011.82
2017-06-14T03:30:02.882Z,1011.79
2017-06-14T03:31:02.869Z,1011.83
2017-06-14T03:32:02.851Z,1011.83
2017-06-14T03:33:02.838Z,1011.89
2017-06-14T03:34:02.822Z,1011.87
2017-06-14T03:35:02.806Z,1011.92
2017-06-14T03:36:02.792Z,1011.92
2017-06-14T03:37:02.778Z,1011.94
2017-06-14T03:38:02.763Z,1011.97
2017-06-14T03:39:02.751Z,1011.98
2017-06-14T03:40:02.732Z,1012
2017-06-14T03:41:02.718Z,1012.04
2017-06-14T03:42:02.701Z,1012.02
2017-06-14T03:43:02.687Z,1012.04
2017-06-14T03:44:02.673Z,1012.04
2017-06-14T03:45:02.660Z,1012.04
2017-06-14T03:46:02.643Z,1012.1
2017-06-14T03:47:02.630Z,1012.12
2017-06-14T03:48:02.613Z,1012.11
2017-06-14T03:49:02.599Z,1012.16
2017-06-14T03:50:02.586Z,1012.17
2017-06-14T03:51:02.568Z,1012.17
2017-06-14T03:52:02.553Z,1012.17
2017-06-14T03:53:02.538Z,1012.19
2017-06-14T03:54:02.522Z,1012.24
2017-06-14T03:55:02.510Z,1012.17
2017-06-14T03:56:02.492Z,1012.19
2017-06-14T03:57:02.478Z,1012.21
2017-06-14T03:58:02.463Z,1012.2
2017-06-14T03:59:02.448Z,1012.18
2017-06-14T04:00:02.434Z,1012.17
2017-06-14T04:01:02.418Z,1012.19
2017-06-14T04:02:02.403Z,1012.19
2017-06-14T04:03:02.389Z,1012.25
2017-06-14T04:04:02.382Z,1012.21
2017-06-14T04:05:02.357Z,1012.16
2017-06-14T04:06:02.344Z,1012.19
2017-06-14T04:07:02.329Z,1012.17
2017-06-14T04:08:02.319Z,1012.23
2017-06-14T04:09:02.301Z,1012.23
2017-06-14T04:10:02.285Z,1012.22
2017-06-14T04:11:02.268Z,1012.24
2017-06-14T04:12:02.256Z,1012.24
2017-06-14T04:13:02.238Z,1012.29
2017-06-14T04:14:02.224Z,1012.3
2017-06-14T04:15:02.208Z,1012.27
2017-06-14T04:16:02.194Z,1012.27
2017-06-14T04:17:02.180Z,1012.28
2017-06-14T04:18:02.172Z,1012.26
2017-06-14T04:19:02.151Z,1012.24
2017-06-14T04:20:02.135Z,1012.3
2017-06-14T04:21:02.121Z,1012.26
2017-06-14T04:22:02.106Z,1012.28
2017-06-14T04:23:02.142Z,1012.26
2017-06-14T04:24:02.077Z,1012.28
2017-06-14T04:25:02.061Z,1012.31
2017-06-14T04:26:02.046Z,1012.3
2017-06-14T04:27:02.030Z,1012.32
2017-06-14T04:28:02.017Z,1012.3
2017-06-14T04:29:02.002Z,1012.33
2017-06-14T04:30:01.985Z,1012.4
2017-06-14T04:31:01.997Z,1012.41
2017-06-14T04:32:01.958Z,1012.47
2017-06-14T04:33:01.944Z,1012.47
2017-06-14T04:34:01.928Z,1012.52
2017-06-14T04:35:01.917Z,1012.53
2017-06-14T04:36:01.900Z,1012.56
2017-06-14T04:37:01.882Z,1012.54
2017-06-14T04:38:01.870Z,1012.54
2017-06-14T04:39:01.865Z,1012.54
2017-06-14T04:40:01.839Z,1012.52
2017-06-14T04:41:01.823Z,1012.64
2017-06-14T04:42:01.810Z,1012.56
2017-06-14T04:43:01.795Z,1012.59
2017-06-14T04:44:01.781Z,1012.66
2017-06-14T04:45:01.765Z,1012.62
2017-06-14T04:46:01.752Z,1012.69
2017-06-14T04:47:01.738Z,1012.69
2017-06-14T04:48:01.722Z,1012.69
2017-06-14T04:49:01.708Z,1012.72
2017-06-14T04:50:01.693Z,1012.66
2017-06-14T04:51:01.678Z,1012.63
2017-06-14T04:52:01.662Z,1012.61
2017-06-14T04:53:01.647Z,1012.66
2017-06-14T04:54:01.636Z,1012.65
2017-06-14T04:55:01.620Z,1012.68
2017-06-14T04:56:01.605Z,1012.68
2017-06-14T04:57:01.590Z,1012.67
2017-06-14T04:58:01.577Z,1012.64
2017-06-14T04:59:01.561Z,1012.65
2017-06-14T05:00:01.549Z,1012.61
2017-06-14T05:01:01.533Z,1012.55
2017-06-14T05:02:01.519Z,1012.61
2017-06-14T05:03:01.509Z,1012.62
2017-06-14T05:04:01.493Z,1012.64
2017-06-14T05:05:01.476Z,1012.68
2017-06-14T05:06:01.461Z,1012.65
2017-06-14T05:07:01.446Z,1012.68
2017-06-14T05:08:01.432Z,1012.64
2017-06-14T05:09:01.420Z,1012.67
2017-06-14T05:10:01.403Z,1012.62
2017-06-14T05:11:01.390Z,1012.65
2017-06-14T05:12:01.378Z,1012.68
2017-06-14T05:13:01.366Z,1012.7
2017-06-14T05:14:01.348Z,1012.7
2017-06-14T05:15:01.338Z,1012.74
2017-06-14T05:16:01.320Z,1012.73
2017-06-14T05:17:01.307Z,1012.75
2017-06-14T05:18:01.291Z,1012.73
2017-06-14T05:19:01.278Z,1012.72
2017-06-14T05:20:01.263Z,1012.68
2017-06-14T05:21:01.250Z,1012.67
2017-06-14T05:22:01.438Z,1012.67
2017-06-14T05:23:01.222Z,1012.68
2017-06-14T05:24:01.261Z,1012.65
2017-06-14T05:25:01.194Z,1012.7
2017-06-14T05:26:01.230Z,1012.64
2017-06-14T05:27:01.167Z,1012.64
2017-06-14T05:28:01.164Z,1012.6
2017-06-14T05:29:01.142Z,1012.65
2017-06-14T05:30:01.135Z,1012.62
2017-06-14T05:31:01.112Z,1012.61
2017-06-14T05:32:01.182Z,1012.62
2017-06-14T05:33:01.083Z,1012.6
2017-06-14T05:34:01.323Z,1012.57
2017-06-14T05:35:01.055Z,1012.52
2017-06-14T05:36:01.061Z,1012.51
2017-06-14T05:37:01.031Z,1012.51
2017-06-14T05:38:01.017Z,1012.49
2017-06-14T05:39:01.004Z,1012.5
2017-06-14T05:40:00.988Z,1012.53
2017-06-14T05:41:00.975Z,1012.56
2017-06-14T05:42:00.961Z,1012.54
2017-06-14T05:43:00.948Z,1012.53
2017-06-14T05:44:00.936Z,1012.53
2017-06-14T05:45:00.922Z,1012.55
2017-06-14T05:46:00.908Z,1012.56
2017-06-14T05:47:00.893Z,1012.51
2017-06-14T05:48:00.880Z,1012.55
2017-06-14T05:49:00.866Z,1012.56
2017-06-14T05:50:00.858Z,1012.56
2017-06-14T05:51:00.844Z,1012.56
2017-06-14T05:52:00.829Z,1012.56
2017-06-14T05:53:00.816Z,1012.57
2017-06-14T05:54:00.800Z,1012.61
2017-06-14T05:55:00.808Z,1012.67
2017-06-14T05:56:00.776Z,1012.65
2017-06-14T05:57:00.763Z,1012.68
2017-06-14T05:58:00.749Z,1012.7
2017-06-14T05:59:00.738Z,1012.66
2017-06-14T06:00:00.723Z,1012.71
2017-06-14T06:01:00.708Z,1012.68
2017-06-14T06:02:00.697Z,1012.72
2017-06-14T06:03:00.683Z,1012.73
2017-06-14T06:04:00.681Z,1012.74
2017-06-14T06:05:00.708Z,1012.72
2017-06-14T06:06:00.654Z,1012.77
2017-06-14T06:07:00.633Z,1012.75
2017-06-14T06:08:00.626Z,1012.75
2017-06-14T06:09:00.606Z,1012.78
2017-06-14T06:10:00.595Z,1012.82
2017-06-14T06:11:00.579Z,1012.81
2017-06-14T06:12:00.567Z,1012.83
2017-06-14T06:13:00.554Z,1012.81
2017-06-14T06:14:00.545Z,1012.87
2017-06-14T06:15:00.528Z,1012.91
2017-06-14T06:16:00.525Z,1012.99
2017-06-14T06:17:00.505Z,1013.07
2017-06-14T06:18:00.498Z,1013.08
2017-06-14T06:19:00.496Z,1013.12
2017-06-14T06:20:00.518Z,1013.08
2017-06-14T06:21:00.457Z,1013.11
2017-06-14T06:22:00.447Z,1013.12
2017-06-14T06:23:00.439Z,1013.08
2017-06-14T06:24:00.425Z,1012.94
2017-06-14T06:25:00.417Z,1012.89
2017-06-14T06:26:00.404Z,1012.85
2017-06-14T06:27:00.393Z,1012.87
2017-06-14T06:28:00.383Z,1012.84
2017-06-14T06:29:00.373Z,1012.87
2017-06-14T06:30:00.363Z,1012.84
2017-06-14T06:31:00.354Z,1012.83
2017-06-14T06:32:00.344Z,1012.79
2017-06-14T06:33:00.331Z,1012.79
2017-06-14T06:34:00.321Z,1012.77
2017-06-14T06:35:00.309Z,1012.78
2017-06-14T06:36:00.300Z,1012.76
2017-06-14T06:37:00.287Z,1012.76
2017-06-14T06:38:00.276Z,1012.76
2017-06-14T06:39:00.268Z,1012.75
2017-06-14T06:40:00.255Z,1012.75
2017-06-14T06:41:00.246Z,1012.71
2017-06-14T06:42:00.232Z,1012.71
2017-06-14T06:43:00.222Z,1012.77
2017-06-14T06:44:00.210Z,1012.91
2017-06-14T06:45:00.201Z,1013.03
2017-06-14T06:46:00.191Z,1012.97
2017-06-14T06:47:00.179Z,1012.99
2017-06-14T06:48:00.169Z,1012.94
2017-06-14T06:49:00.158Z,1012.87
2017-06-14T06:50:00.147Z,1012.8
2017-06-14T06:51:00.139Z,1012.72
2017-06-14T06:52:00.131Z,1012.73
2017-06-14T06:53:00.124Z,1012.7
2017-06-14T06:54:00.113Z,1012.65
2017-06-14T06:55:00.106Z,1012.69
2017-06-14T06:56:00.099Z,1012.7
2017-06-14T06:57:00.087Z,1012.71
2017-06-14T06:58:00.079Z,1012.69
2017-06-14T06:59:00.069Z,1012.75
2017-06-14T07:00:00.062Z,1012.8
2017-06-14T07:01:00.053Z,1012.83
2017-06-14T07:02:00.041Z,1012.8
2017-06-14T07:03:00.032Z,1012.78
2017-06-14T07:04:00.022Z,1012.79
2017-06-14T07:05:00.021Z,1012.79
2017-06-14T07:06:00.004Z,1012.81
2017-06-14T07:06:59.993Z,1012.78
2017-06-14T07:07:59.985Z,1012.78
2017-06-14T07:08:59.975Z,1012.79
2017-06-14T07:09:59.967Z,1012.79
2017-06-14T07:10:59.957Z,1012.88
2017-06-14T07:11:59.948Z,1013
2017-06-14T07:12:59.938Z,1013.07
2017-06-14T07:13:59.929Z,1013.12
2017-06-14T07:14:59.919Z,1013.2
2017-06-14T07:15:59.912Z,1013.14
2017-06-14T07:16:59.904Z,1013.16
2017-06-14T07:17:59.897Z,1013.2
2017-06-14T07:18:59.887Z,1013.17
2017-06-14T07:19:59.879Z,1013.2
2017-06-14T07:20:59.873Z,1013.1
2017-06-14T07:22:00.069Z,1013.03
2017-06-14T07:22:59.860Z,1013
2017-06-14T07:23:59.854Z,1013.15
2017-06-14T07:24:59.848Z,1013.25
2017-06-14T07:25:59.843Z,1013.17
2017-06-14T07:26:59.838Z,1013.08
2017-06-14T07:27:59.834Z,1013.12
2017-06-14T07:28:59.827Z,1013.03
2017-06-14T07:29:59.821Z,1013.04
2017-06-14T07:30:59.818Z,1013.06
2017-06-14T07:31:59.814Z,1013.05
2017-06-14T07:32:59.809Z,1013
2017-06-14T07:33:59.805Z,1013.02
2017-06-14T07:34:59.805Z,1013.01
2017-06-14T07:35:59.803Z,1013.05
2017-06-14T07:36:59.795Z,1013.02
2017-06-14T07:37:59.793Z,1013.1
2017-06-14T07:38:59.789Z,1013.12
2017-06-14T07:39:59.785Z,1013.16
2017-06-14T07:40:59.781Z,1013.11
2017-06-14T07:41:59.780Z,1013.16
2017-06-14T07:42:59.776Z,1013.13
2017-06-14T07:43:59.778Z,1013.1
2017-06-14T07:44:59.771Z,1013.05
2017-06-14T07:45:59.771Z,1013.06
2017-06-14T07:46:59.766Z,1013.05
2017-06-14T07:47:59.764Z,1013.11
2017-06-14T07:48:59.762Z,1013.13
2017-06-14T07:49:59.762Z,1013.23
2017-06-14T07:50:59.762Z,1013.19
2017-06-14T07:51:59.757Z,1013.13
2017-06-14T07:52:59.756Z,1013.17
2017-06-14T07:53:59.756Z,1013.2
2017-06-14T07:54:59.753Z,1013.18
2017-06-14T07:55:59.751Z,1013.22
2017-06-14T07:56:59.751Z,1013.15
2017-06-14T07:57:59.754Z,1013.23
2017-06-14T07:58:59.748Z,1013.1
2017-06-14T07:59:59.747Z,1013.16
2017-06-14T08:00:59.747Z,1013.2
2017-06-14T08:01:59.746Z,1013.21
2017-06-14T08:02:59.746Z,1013.21
2017-06-14T08:03:59.744Z,1013.21
2017-06-14T08:04:59.745Z,1013.22
2017-06-14T08:05:59.741Z,1013.27
2017-06-14T08:06:59.742Z,1013.28
2017-06-14T08:07:59.741Z,1013.23
2017-06-14T08:08:59.744Z,1013.27
2017-06-14T08:09:59.738Z,1013.21
2017-06-14T08:10:59.739Z,1013.24
2017-06-14T08:11:59.739Z,1013.22
2017-06-14T08:12:59.737Z,1013.17
2017-06-14T08:13:59.738Z,1013.21
2017-06-14T08:14:59.738Z,1013.18
2017-06-14T08:15:59.736Z,1013.23
2017-06-14T08:16:59.737Z,1013.2
2017-06-14T08:17:59.736Z,1013.23
2017-06-14T08:18:59.735Z,1013.24
2017-06-14T08:19:59.735Z,1013.26
2017-06-14T08:20:59.734Z,1013.27
2017-06-14T08:21:59.734Z,1013.24
2017-06-14T08:22:59.735Z,1013.23
2017-06-14T08:23:59.734Z,1013.23
2017-06-14T08:24:59.736Z,1013.16
2017-06-14T08:25:59.736Z,1013.15
2017-06-14T08:26:59.738Z,1013.14
2017-06-14T08:27:59.738Z,1013.06
2017-06-14T08:28:59.743Z,1013.12
2017-06-14T08:29:59.742Z,1013.16
2017-06-14T08:30:59.742Z,1013.15
2017-06-14T08:31:59.744Z,1013.16
2017-06-14T08:32:59.744Z,1013.27
2017-06-14T08:33:59.745Z,1013.22
2017-06-14T08:34:59.748Z,1013.27
2017-06-14T08:35:59.749Z,1013.25
2017-06-14T08:36:59.755Z,1013.28
2017-06-14T08:37:59.753Z,1013.3
2017-06-14T08:38:59.755Z,1013.28
2017-06-14T08:39:59.759Z,1013.33
2017-06-14T08:40:59.759Z,1013.34
2017-06-14T08:41:59.760Z,1013.34
2017-06-14T08:42:59.764Z,1013.37
2017-06-14T08:43:59.767Z,1013.38
2017-06-14T08:44:59.770Z,1013.43
2017-06-14T08:45:59.772Z,1013.37
2017-06-14T08:46:59.774Z,1013.32
2017-06-14T08:47:59.776Z,1013.28
2017-06-14T08:48:59.779Z,1013.1
2017-06-14T08:49:59.783Z,1012.93
2017-06-14T08:50:59.786Z,1012.97
2017-06-14T08:51:59.787Z,1012.76
2017-06-14T08:52:59.792Z,1012.77
2017-06-14T08:53:59.792Z,1012.78
2017-06-14T08:54:59.792Z,1012.73
2017-06-14T08:55:59.795Z,1012.76
2017-06-14T08:56:59.799Z,1012.81
2017-06-14T08:57:59.799Z,1012.71
2017-06-14T08:58:59.803Z,1012.64
2017-06-14T08:59:59.800Z,1012.66
2017-06-14T09:00:59.803Z,1012.73
2017-06-14T09:01:59.801Z,1012.7
2017-06-14T09:02:59.800Z,1012.73
2017-06-14T09:03:59.798Z,1012.67
2017-06-14T09:04:59.799Z,1012.67
2017-06-14T09:05:59.808Z,1012.71
2017-06-14T09:06:59.797Z,1012.68
2017-06-14T09:07:59.799Z,1012.7
2017-06-14T09:08:59.795Z,1012.76
2017-06-14T09:09:59.794Z,1013.02
2017-06-14T09:10:59.789Z,1013.19
2017-06-14T09:11:59.789Z,1013.26
2017-06-14T09:12:59.786Z,1013.28
2017-06-14T09:13:59.785Z,1013.21
2017-06-14T09:14:59.783Z,1013.25
2017-06-14T09:15:59.782Z,1013.23
2017-06-14T09:16:59.783Z,1013.21
2017-06-14T09:17:59.781Z,1013.27
2017-06-14T09:18:59.781Z,1013.32
2017-06-14T09:19:59.782Z,1013.36
2017-06-14T09:20:59.781Z,1013.34
2017-06-14T09:21:59.983Z,1013.36
2017-06-14T09:22:59.785Z,1013.33
2017-06-14T09:23:59.783Z,1013.27
2017-06-14T09:24:59.786Z,1013.3
2017-06-14T09:25:59.786Z,1013.3
2017-06-14T09:26:59.791Z,1013.31
2017-06-14T09:27:59.790Z,1013.32
2017-06-14T09:28:59.793Z,1013.3
2017-06-14T09:29:59.793Z,1013.3
2017-06-14T09:30:59.824Z,1013.33
2017-06-14T09:31:59.802Z,1013.32
2017-06-14T09:32:59.802Z,1013.35
2017-06-14T09:33:59.805Z,1013.38
2017-06-14T09:34:59.809Z,1013.36
2017-06-14T09:35:59.812Z,1013.38
2017-06-14T09:36:59.815Z,1013.43
2017-06-14T09:37:59.819Z,1013.43
2017-06-14T09:38:59.825Z,1013.42
2017-06-14T09:39:59.826Z,1013.37
2017-06-14T09:40:59.828Z,1013.37
2017-06-14T09:41:59.832Z,1013.37
2017-06-14T09:42:59.837Z,1013.34
2017-06-14T09:43:59.842Z,1013.34
2017-06-14T09:44:59.843Z,1013.39
2017-06-14T09:45:59.849Z,1013.36
2017-06-14T09:46:59.852Z,1013.34
2017-06-14T09:47:59.857Z,1013.31
2017-06-14T09:48:59.860Z,1013.34
2017-06-14T09:49:59.864Z,1013.34
2017-06-14T09:50:59.872Z,1013.37
2017-06-14T09:51:59.872Z,1013.32
2017-06-14T09:52:59.927Z,1013.35
2017-06-14T09:53:59.882Z,1013.29
2017-06-14T09:54:59.885Z,1013.29
2017-06-14T09:55:59.890Z,1013.25
2017-06-14T09:56:59.895Z,1013.25
2017-06-14T09:58:59.903Z,1013.29
2017-06-14T09:59:59.909Z,1013.28
2017-06-14T10:00:59.914Z,1013.25
2017-06-14T10:01:59.918Z,1013.23
2017-06-14T10:02:59.921Z,1013.23
2017-06-14T10:03:59.926Z,1013.24
2017-06-14T10:04:59.931Z,1013.23
2017-06-14T10:05:59.936Z,1013.27
2017-06-14T10:06:59.939Z,1013.24
2017-06-14T10:07:59.943Z,1013.2
2017-06-14T10:08:59.948Z,1013.23
2017-06-14T10:09:59.953Z,1013.19
2017-06-14T10:10:59.959Z,1013.13
2017-06-14T10:11:59.963Z,1013.06
2017-06-14T10:12:59.966Z,1013.08
2017-06-14T10:13:59.971Z,1013.06
2017-06-14T10:14:59.976Z,1013.09
2017-06-14T10:15:59.980Z,1013.07
2017-06-14T10:16:59.988Z,1013.08
2017-06-14T10:17:59.993Z,1013.08
2017-06-14T10:18:59.995Z,1013.04
2017-06-14T10:19:59.999Z,1013.05
2017-06-14T10:21:00.003Z,1013.02
2017-06-14T10:22:00.013Z,1013.01
2017-06-14T10:23:00.013Z,1012.92
2017-06-14T10:24:00.018Z,1012.89
2017-06-14T10:25:00.023Z,1012.89
2017-06-14T10:26:00.028Z,1012.85
2017-06-14T10:27:00.033Z,1012.82
2017-06-14T10:28:00.036Z,1012.85
2017-06-14T10:29:00.042Z,1012.82
2017-06-14T10:30:00.047Z,1012.81
2017-06-14T10:31:00.053Z,1012.76
2017-06-14T10:32:00.057Z,1012.76
2017-06-14T10:33:00.060Z,1012.77
2017-06-14T10:34:00.069Z,1012.79
2017-06-14T10:35:00.071Z,1012.8
2017-06-14T10:36:00.079Z,1012.83
2017-06-14T10:37:00.082Z,1012.83
2017-06-14T10:38:00.086Z,1012.82
2017-06-14T10:39:00.090Z,1012.76
2017-06-14T10:40:00.095Z,1012.74
2017-06-14T10:41:00.100Z,1012.72
2017-06-14T10:42:00.104Z,1012.65
2017-06-14T10:43:00.110Z,1012.61
2017-06-14T10:44:00.114Z,1012.57
2017-06-14T10:45:00.120Z,1012.49
2017-06-14T10:46:00.123Z,1012.34
2017-06-14T10:47:00.129Z,1012.28
2017-06-14T10:48:00.133Z,1012.24
2017-06-14T10:49:00.138Z,1012.19
2017-06-14T10:50:00.145Z,1012.15
2017-06-14T10:51:00.147Z,1012.12
2017-06-14T10:52:00.155Z,1012.12
2017-06-14T10:53:00.160Z,1012.09
2017-06-14T10:54:00.164Z,1012.07
2017-06-14T10:55:00.168Z,1012.05
2017-06-14T10:56:00.175Z,1012.06
2017-06-14T10:57:00.177Z,1012.03
2017-06-14T10:58:00.184Z,1012.07
2017-06-14T10:59:00.189Z,1012.07
2017-06-14T11:00:00.194Z,1012
2017-06-14T11:01:00.200Z,1011.99
2017-06-14T11:02:00.209Z,1011.98
2017-06-14T11:03:00.213Z,1012.01
2017-06-14T11:04:00.216Z,1011.97
2017-06-14T11:05:00.219Z,1011.96
2017-06-14T11:06:00.263Z,1011.91
2017-06-14T11:07:00.231Z,1011.95
2017-06-14T11:08:00.236Z,1011.96
2017-06-14T11:09:00.242Z,1011.96
2017-06-14T11:10:00.247Z,1011.95
2017-06-14T11:11:00.253Z,1011.92
2017-06-14T11:12:00.261Z,1011.86
2017-06-14T11:13:00.265Z,1011.92
2017-06-14T11:14:00.267Z,1011.91
2017-06-14T11:15:00.274Z,1011.85
2017-06-14T11:16:00.278Z,1011.88
2017-06-14T11:17:00.284Z,1011.86
2017-06-14T11:18:00.289Z,1011.89
2017-06-14T11:19:00.292Z,1011.87
2017-06-14T11:20:00.298Z,1011.83
2017-06-14T11:21:00.304Z,1011.87
2017-06-14T11:22:00.513Z,1011.82
2017-06-14T11:23:00.317Z,1011.85
2017-06-14T11:24:00.320Z,1011.86
2017-06-14T11:25:00.325Z,1011.81
2017-06-14T11:26:00.331Z,1011.82
2017-06-14T11:27:00.336Z,1011.85
2017-06-14T11:28:00.342Z,1011.83
2017-06-14T11:29:00.347Z,1011.83
2017-06-14T11:30:00.353Z,1011.82
2017-06-14T11:31:00.357Z,1011.86
2017-06-14T11:32:00.362Z,1011.86
2017-06-14T11:33:00.368Z,1011.85
2017-06-14T11:34:00.374Z,1011.79
2017-06-14T11:35:00.379Z,1011.8
2017-06-14T11:36:00.385Z,1011.83
2017-06-14T11:37:00.392Z,1011.82
2017-06-14T11:38:00.395Z,1011.8
2017-06-14T11:39:00.402Z,1011.78
2017-06-14T11:40:00.407Z,1011.75
2017-06-14T11:41:00.412Z,1011.78
2017-06-14T11:42:00.417Z,1011.79
2017-06-14T11:43:00.424Z,1011.8
2017-06-14T11:44:00.430Z,1011.77
2017-06-14T11:45:00.434Z,1011.78
2017-06-14T11:46:00.440Z,1011.76
2017-06-14T11:47:00.448Z,1011.76
2017-06-14T11:48:00.452Z,1011.75
2017-06-14T11:49:00.457Z,1011.71
2017-06-14T11:50:00.465Z,1011.74
2017-06-14T11:51:00.469Z,1011.75
2017-06-14T11:52:00.475Z,1011.68
2017-06-14T11:53:00.482Z,1011.66
2017-06-14T11:54:00.486Z,1011.69
2017-06-14T11:55:00.492Z,1011.66
2017-06-14T11:56:00.497Z,1011.62
2017-06-14T11:57:00.504Z,1011.58
2017-06-14T11:58:00.509Z,1011.56
2017-06-14T11:59:00.515Z,1011.52
2017-06-14T12:00:00.520Z,1011.5
2017-06-14T12:01:00.529Z,1011.49
2017-06-14T12:02:00.532Z,1011.47
2017-06-14T12:03:00.538Z,1011.47
2017-06-14T12:04:00.542Z,1011.49
2017-06-14T12:05:00.548Z,1011.47
2017-06-14T12:06:00.554Z,1011.49
2017-06-14T12:07:00.560Z,1011.46
2017-06-14T12:08:00.566Z,1011.47
2017-06-14T12:09:00.571Z,1011.51